createdAt,value
2019-03-01T00:00:42.721Z,36.10
2019-03-01T00:03:38.030Z,37.10
2019-03-01T00:06:08.570Z,41.37
2019-03-01T00:08:39.195Z,36.90
2019-03-01T00:11:09.789Z,35.27
2019-03-01T00:13:40.374Z,39.43
2019-03-01T00:16:10.933Z,37.67
2019-03-01T00:18:41.512Z,36.53
2019-03-01T00:21:13.020Z,40.43
2019-03-01T00:23:43.562Z,34.30
2019-03-01T00:29:09.529Z,37.03
2019-03-01T00:31:40.094Z,41.67
2019-03-01T00:34:10.644Z,34.90
2019-03-01T00:36:41.137Z,40.53
2019-03-01T00:39:11.716Z,37.87
2019-03-01T00:41:42.373Z,37.40
2019-03-01T00:44:12.936Z,37.80
2019-03-01T00:46:41.829Z,35.30
2019-03-01T00:49:10.729Z,36.90
2019-03-01T00:51:39.682Z,39.03
2019-03-01T00:54:08.621Z,38.73
2019-03-01T00:56:37.571Z,39.97
2019-03-01T00:59:06.510Z,38.40
2019-03-01T01:01:35.437Z,32.73
2019-03-01T01:04:04.344Z,37.37
2019-03-01T01:06:33.210Z,37.57
2019-03-01T01:09:02.126Z,41.03
2019-03-01T01:11:32.684Z,43.00
2019-03-01T01:14:01.589Z,42.60
2019-03-01T01:16:30.509Z,41.43
2019-03-01T01:18:59.425Z,42.30
2019-03-01T01:21:28.384Z,38.37
2019-03-01T01:23:57.299Z,43.03
2019-03-01T01:26:26.233Z,46.30
2019-03-01T01:28:55.153Z,43.73
2019-03-01T01:31:24.065Z,43.40
2019-03-01T01:33:53.009Z,43.17
2019-03-01T01:36:21.958Z,44.50
2019-03-01T01:38:50.867Z,43.67
2019-03-01T01:41:19.846Z,44.67
2019-03-01T01:43:48.753Z,42.70
2019-03-01T01:46:17.698Z,43.10
2019-03-01T01:48:46.641Z,35.67
2019-03-01T01:51:15.558Z,43.77
2019-03-01T01:53:44.489Z,42.63
2019-03-01T01:56:13.430Z,43.67
2019-03-01T01:58:42.389Z,45.77
2019-03-01T02:01:11.297Z,44.10
2019-03-01T02:03:40.225Z,43.77
2019-03-01T02:06:09.145Z,55.80
2019-03-01T02:08:38.074Z,44.47
2019-03-01T02:11:06.968Z,47.73
2019-03-01T02:13:35.917Z,48.00
2019-03-01T02:16:04.825Z,45.30
2019-03-01T02:18:33.758Z,47.17
2019-03-01T02:21:02.676Z,44.97
2019-03-01T02:23:31.526Z,41.67
2019-03-01T02:26:00.455Z,49.67
2019-03-01T02:28:29.391Z,44.37
2019-03-01T02:31:00.205Z,46.97
2019-03-01T02:33:29.167Z,46.37
2019-03-01T02:35:58.083Z,52.17
2019-03-01T02:38:27.005Z,49.57
2019-03-01T02:40:55.921Z,41.83
2019-03-01T02:43:24.848Z,44.47
2019-03-01T02:45:53.765Z,48.40
2019-03-01T02:48:22.701Z,49.23
2019-03-01T02:50:51.533Z,47.03
2019-03-01T02:53:20.461Z,44.80
2019-03-01T02:55:49.343Z,46.63
2019-03-01T02:58:18.422Z,43.57
2019-03-01T03:00:47.321Z,48.27
2019-03-01T03:03:17.216Z,47.33
2019-03-01T03:05:47.817Z,45.93
2019-03-01T03:08:16.760Z,50.40
2019-03-01T03:10:45.708Z,43.70
2019-03-01T03:13:14.624Z,46.63
2019-03-01T03:15:45.236Z,49.93
2019-03-01T03:18:14.152Z,49.33
2019-03-01T03:20:43.083Z,47.07
2019-03-01T03:23:11.981Z,48.27
2019-03-01T03:25:40.937Z,51.20
2019-03-01T03:28:09.864Z,46.23
2019-03-01T03:30:38.777Z,47.80
2019-03-01T03:33:07.719Z,47.30
2019-03-01T03:35:36.790Z,46.07
2019-03-01T03:38:06.018Z,44.47
2019-03-01T03:40:35.043Z,46.50
2019-03-01T03:43:03.980Z,46.73
2019-03-01T03:45:33.962Z,55.97
2019-03-01T03:48:02.974Z,40.40
2019-03-01T03:50:31.936Z,48.30
2019-03-01T03:53:00.845Z,46.30
2019-03-01T03:55:29.769Z,43.67
2019-03-01T03:57:58.671Z,46.07
2019-03-01T04:00:27.704Z,43.57
2019-03-01T04:02:56.611Z,44.03
2019-03-01T04:05:25.577Z,41.53
2019-03-01T04:07:54.480Z,46.77
2019-03-01T04:10:23.420Z,44.00
2019-03-01T04:12:52.359Z,45.00
2019-03-01T04:15:21.401Z,43.20
2019-03-01T04:17:50.320Z,42.80
2019-03-01T04:20:19.256Z,47.27
2019-03-01T04:22:48.186Z,50.43
2019-03-01T04:25:17.098Z,43.80
2019-03-01T04:27:46.023Z,48.60
2019-03-01T04:30:15.758Z,45.90
2019-03-01T04:32:44.720Z,51.40
2019-03-01T04:35:14.835Z,52.67
2019-03-01T04:37:43.759Z,49.43
2019-03-01T04:40:13.620Z,51.60
2019-03-01T04:42:42.545Z,50.67
2019-03-01T04:45:13.173Z,47.33
2019-03-01T04:47:42.174Z,40.83
2019-03-01T04:50:11.509Z,46.83
2019-03-01T04:52:40.611Z,49.03
2019-03-01T04:55:10.828Z,47.67
2019-03-01T04:57:39.789Z,49.63
2019-03-01T05:00:10.353Z,50.03
2019-03-01T05:02:39.290Z,47.47
2019-03-01T05:05:08.265Z,44.60
2019-03-01T05:07:37.224Z,48.80
2019-03-01T05:10:07.811Z,44.37
2019-03-01T05:12:36.732Z,47.63
2019-03-01T05:15:07.286Z,50.83
2019-03-01T05:17:36.299Z,48.40
2019-03-01T05:20:05.792Z,51.43
2019-03-01T05:22:34.961Z,50.27
2019-03-01T05:25:05.018Z,47.50
2019-03-01T05:27:33.971Z,52.40
2019-03-01T05:30:03.254Z,51.37
2019-03-01T05:32:33.376Z,49.50
2019-03-01T05:35:02.282Z,49.53
2019-03-01T05:37:31.245Z,49.40
2019-03-01T05:40:00.296Z,50.53
2019-03-01T05:42:29.175Z,49.70
2019-03-01T05:44:58.089Z,49.17
2019-03-01T05:47:27.036Z,49.17
2019-03-01T05:49:55.938Z,48.10
2019-03-01T05:52:24.888Z,47.60
2019-03-01T05:54:53.837Z,49.30
2019-03-01T05:57:22.694Z,45.70
2019-03-01T05:59:51.619Z,50.87
2019-03-01T06:02:22.236Z,50.07
2019-03-01T06:04:52.885Z,48.03
2019-03-01T06:07:23.522Z,46.43
2019-03-01T06:09:55.046Z,47.87
2019-03-01T06:12:25.619Z,47.30
2019-03-01T06:14:56.178Z,47.77
2019-03-01T06:17:26.738Z,49.03
2019-03-01T06:19:57.289Z,51.53
2019-03-01T06:22:27.305Z,49.13
2019-03-01T06:24:57.907Z,54.97
2019-03-01T06:27:28.517Z,55.67
2019-03-01T06:29:59.068Z,59.53
2019-03-01T06:32:29.629Z,58.47
2019-03-01T06:35:00.341Z,54.83
2019-03-01T06:37:31.022Z,59.87
2019-03-01T06:40:04.294Z,52.57
2019-03-01T06:42:34.862Z,51.00
2019-03-01T06:45:05.392Z,56.70
2019-03-01T06:47:36.001Z,51.70
2019-03-01T06:50:07.443Z,51.93
2019-03-01T06:52:36.377Z,48.37
2019-03-01T06:55:05.784Z,46.77
2019-03-01T06:57:34.701Z,47.80
2019-03-01T07:00:06.926Z,47.27
2019-03-01T07:02:37.544Z,47.67
2019-03-01T07:05:06.482Z,45.40
2019-03-01T07:07:35.408Z,46.23
2019-03-01T07:10:05.339Z,45.80
2019-03-01T07:12:34.236Z,44.57
2019-03-01T07:15:03.908Z,43.97
2019-03-01T07:17:32.977Z,43.13
2019-03-01T07:20:01.843Z,44.40
2019-03-01T07:22:31.830Z,46.67
2019-03-01T07:25:00.785Z,41.70
2019-03-01T07:27:29.715Z,42.00
2019-03-01T07:29:58.558Z,45.20
2019-03-01T07:32:27.472Z,43.73
2019-03-01T07:34:56.434Z,46.90
2019-03-01T07:37:25.354Z,42.17
2019-03-01T07:39:54.294Z,45.77
2019-03-01T07:42:23.202Z,46.53
2019-03-01T07:44:52.125Z,45.50
2019-03-01T07:47:21.054Z,42.33
2019-03-01T07:49:49.989Z,44.43
2019-03-01T07:52:18.928Z,43.93
2019-03-01T07:54:49.424Z,44.90
2019-03-01T07:57:18.363Z,45.83
2019-03-01T07:59:47.291Z,43.50
2019-03-01T08:02:16.194Z,43.33
2019-03-01T08:04:45.204Z,41.33
2019-03-01T08:07:14.114Z,45.83
2019-03-01T08:09:44.921Z,47.33
2019-03-01T08:12:13.702Z,48.40
2019-03-01T08:14:42.703Z,44.70
2019-03-01T08:17:11.610Z,44.50
2019-03-01T08:19:40.554Z,39.77
2019-03-01T08:22:09.458Z,42.73
2019-03-01T08:24:38.412Z,40.17
2019-03-01T08:27:09.978Z,41.63
2019-03-01T08:29:37.848Z,39.30
2019-03-01T08:32:06.774Z,42.43
2019-03-01T08:34:35.703Z,38.97
2019-03-01T08:37:04.698Z,42.47
2019-03-01T08:39:36.619Z,38.77
2019-03-01T08:42:04.220Z,42.43
2019-03-01T08:44:34.393Z,41.77
2019-03-01T08:47:04.432Z,40.77
2019-03-01T08:49:33.336Z,46.10
2019-03-01T08:52:02.421Z,37.07
2019-03-01T08:54:31.399Z,42.30
2019-03-01T08:57:00.612Z,37.83
2019-03-01T08:59:29.675Z,37.13
2019-03-01T09:01:58.593Z,39.20
2019-03-01T09:04:27.518Z,40.10
2019-03-01T09:06:56.429Z,40.30
2019-03-01T09:09:25.348Z,37.83
2019-03-01T09:11:54.276Z,43.27
2019-03-01T09:14:26.160Z,42.63
2019-03-01T09:16:53.839Z,41.60
2019-03-01T09:19:25.245Z,41.90
2019-03-01T09:21:53.316Z,45.03
2019-03-01T09:24:22.242Z,42.87
2019-03-01T09:26:51.698Z,43.93
2019-03-01T09:29:21.705Z,43.33
2019-03-01T09:31:50.910Z,43.47
2019-03-01T09:34:21.285Z,42.03
2019-03-01T09:36:51.552Z,45.33
2019-03-01T09:39:20.746Z,51.50
2019-03-01T09:41:49.686Z,47.10
2019-03-01T09:44:18.617Z,50.73
2019-03-01T09:46:47.576Z,52.33
2019-03-01T09:49:16.541Z,51.40
2019-03-01T09:51:48.419Z,53.40
2019-03-01T09:54:16.094Z,51.70
2019-03-01T09:56:45.117Z,59.30
2019-03-01T09:59:14.072Z,50.70
2019-03-01T10:01:42.991Z,49.10
2019-03-01T10:04:11.959Z,51.67
2019-03-01T10:06:40.929Z,51.17
2019-03-01T10:09:10.328Z,47.83
2019-03-01T10:11:40.121Z,53.30
2019-03-01T10:17:27.054Z,46.87
2019-03-01T10:19:55.969Z,50.50
2019-03-01T10:22:24.897Z,47.37
2019-03-01T10:24:53.810Z,48.53
2019-03-01T10:27:22.730Z,46.83
2019-03-01T10:29:51.672Z,53.10
2019-03-01T10:32:21.669Z,61.67
2019-03-01T10:34:50.609Z,62.50
2019-03-01T10:37:19.505Z,67.67
2019-03-01T10:39:55.319Z,70.00
2019-03-01T10:42:18.894Z,77.70
2019-03-01T10:44:47.827Z,75.23
2019-03-01T10:47:16.737Z,75.50
2019-03-01T10:49:45.665Z,78.20
2019-03-01T10:52:14.585Z,75.87
2019-03-01T10:54:43.522Z,85.87
2019-03-01T10:57:12.433Z,82.57
2019-03-01T10:59:41.365Z,83.57
2019-03-01T11:02:10.290Z,76.93
2019-03-01T11:04:39.209Z,76.40
2019-03-01T11:07:08.065Z,79.93
2019-03-01T11:09:37.009Z,74.80
2019-03-01T11:12:17.996Z,77.00
2019-03-01T11:14:46.932Z,78.63
2019-03-01T11:17:15.847Z,80.33
2019-03-01T11:19:44.774Z,74.53
2019-03-01T11:22:13.692Z,83.00
2019-03-01T11:24:42.627Z,90.17
2019-03-01T11:27:13.070Z,96.37
2019-03-01T11:29:42.161Z,95.83
2019-03-01T11:32:11.115Z,103.10
2019-03-01T11:34:40.053Z,89.90
2019-03-01T11:37:08.985Z,66.83
2019-03-01T11:39:37.905Z,70.80
2019-03-01T11:42:06.842Z,70.37
2019-03-01T11:44:35.773Z,68.67
2019-03-01T11:47:04.678Z,64.40
2019-03-01T11:49:33.604Z,66.43
2019-03-01T11:52:02.444Z,65.93
2019-03-01T11:54:31.393Z,63.93
2019-03-01T11:57:00.322Z,74.17
2019-03-01T11:59:29.250Z,64.23
2019-03-01T12:01:58.164Z,61.53
2019-03-01T12:04:27.145Z,67.73
2019-03-01T12:06:56.074Z,71.70
2019-03-01T12:09:25.049Z,80.33
2019-03-01T12:11:53.994Z,89.63
2019-03-01T12:14:23.051Z,83.17
2019-03-01T12:16:51.989Z,94.90
2019-03-01T12:19:21.283Z,93.50
2019-03-01T12:21:50.256Z,94.97
2019-03-01T12:24:19.203Z,99.63
2019-03-01T12:26:48.144Z,86.13
2019-03-01T12:29:17.099Z,90.87
2019-03-01T12:31:46.029Z,78.80
2019-03-01T12:34:14.945Z,78.10
2019-03-01T12:36:43.891Z,81.00
2019-03-01T12:39:12.792Z,68.93
2019-03-01T12:41:42.702Z,67.37
2019-03-01T12:44:11.614Z,59.13
2019-03-01T12:46:40.537Z,46.63
2019-03-01T12:49:10.352Z,48.87
2019-03-01T12:51:39.303Z,37.80
2019-03-01T12:54:08.221Z,30.67
2019-03-01T12:56:37.147Z,32.83
2019-03-01T12:59:06.070Z,29.40
2019-03-01T13:01:34.989Z,36.97
2019-03-01T13:04:03.838Z,29.80
2019-03-01T13:06:35.451Z,33.93
2019-03-01T13:09:04.338Z,34.13
2019-03-01T13:11:33.966Z,36.30
2019-03-01T13:14:02.935Z,40.30
2019-03-01T13:16:31.890Z,42.47
2019-03-01T13:19:00.817Z,43.20
2019-03-01T13:21:29.751Z,42.07
2019-03-01T13:23:58.730Z,47.60
2019-03-01T13:26:27.662Z,44.50
2019-03-01T13:28:56.583Z,38.93
2019-03-01T13:31:25.521Z,41.83
2019-03-01T13:33:54.434Z,37.23
2019-03-01T13:36:23.377Z,40.50
2019-03-01T13:38:52.286Z,38.47
2019-03-01T13:41:21.225Z,43.13
2019-03-01T13:43:50.140Z,43.27
2019-03-01T13:46:19.077Z,38.53
2019-03-01T13:48:50.921Z,38.50
2019-03-01T13:51:18.561Z,36.77
2019-03-01T13:53:49.168Z,34.00
2019-03-01T13:56:18.228Z,37.10
2019-03-01T13:58:47.214Z,41.93
2019-03-01T14:01:17.205Z,37.40
2019-03-01T14:03:46.080Z,39.03
2019-03-01T14:06:15.905Z,36.43
2019-03-01T14:08:44.926Z,41.70
2019-03-01T14:11:15.221Z,36.63
2019-03-01T14:13:47.678Z,39.73
2019-03-01T14:16:17.039Z,34.80
2019-03-01T14:18:45.562Z,40.30
2019-03-01T14:21:15.452Z,44.33
2019-03-01T14:23:44.426Z,36.53
2019-03-01T14:26:15.146Z,38.40
2019-03-01T14:28:43.887Z,39.93
2019-03-01T14:31:12.787Z,34.47
2019-03-01T14:33:42.684Z,36.73
2019-03-01T14:36:11.593Z,39.80
2019-03-01T14:38:41.495Z,38.37
2019-03-01T14:41:10.413Z,34.20
2019-03-01T14:43:39.350Z,37.80
2019-03-01T14:46:08.261Z,35.77
2019-03-01T14:48:37.188Z,38.17
2019-03-01T14:51:07.017Z,33.40
2019-03-01T14:53:36.706Z,37.30
2019-03-01T14:56:07.254Z,35.47
2019-03-01T14:58:37.819Z,36.07
2019-03-01T15:01:08.372Z,30.97
2019-03-01T15:03:37.889Z,34.27
2019-03-01T15:06:07.069Z,29.17
2019-03-01T15:08:36.298Z,30.90
2019-03-01T15:11:08.068Z,32.07
2019-03-01T15:13:37.035Z,28.73
2019-03-01T15:16:07.509Z,26.47
2019-03-01T15:18:37.114Z,32.67
2019-03-01T15:21:06.685Z,35.90
2019-03-01T15:23:35.657Z,27.03
2019-03-01T15:26:04.593Z,29.53
2019-03-01T15:28:35.767Z,27.20
2019-03-01T15:31:04.817Z,36.47
2019-03-01T15:33:33.738Z,23.27
2019-03-01T15:36:02.677Z,20.27
2019-03-01T15:38:31.518Z,26.97
2019-03-01T15:41:03.537Z,29.90
2019-03-01T15:43:31.078Z,22.23
2019-03-01T15:45:59.953Z,24.97
2019-03-01T15:48:28.872Z,23.90
2019-03-01T15:50:59.003Z,23.00
2019-03-01T15:53:28.380Z,26.43
2019-03-01T15:55:57.328Z,25.50
2019-03-01T15:58:29.200Z,23.60
2019-03-01T16:00:56.820Z,23.23
2019-03-01T16:03:25.737Z,22.23
2019-03-01T16:05:54.656Z,18.80
2019-03-01T16:08:23.600Z,17.83
2019-03-01T16:10:52.517Z,20.07
2019-03-01T16:13:21.430Z,20.53
2019-03-01T16:15:50.354Z,16.27
2019-03-01T16:18:19.333Z,13.90
2019-03-01T16:20:48.266Z,13.90
2019-03-01T16:23:17.192Z,16.67
2019-03-01T16:25:46.135Z,16.10
2019-03-01T16:28:14.965Z,14.50
2019-03-01T16:30:43.902Z,19.23
2019-03-01T16:33:12.785Z,21.87
2019-03-01T16:35:41.716Z,13.10
2019-03-01T16:38:10.665Z,21.37
2019-03-01T16:40:39.597Z,19.30
2019-03-01T16:43:08.505Z,15.70
2019-03-01T16:45:37.462Z,20.03
2019-03-01T16:48:06.377Z,13.10
2019-03-01T16:50:35.302Z,16.27
2019-03-01T16:53:05.419Z,21.87
2019-03-01T16:55:34.462Z,17.57
2019-03-01T16:58:07.258Z,16.70
2019-03-01T17:00:33.913Z,19.10
2019-03-01T17:03:04.481Z,21.90
2019-03-01T17:05:35.719Z,20.17
2019-03-01T17:08:05.941Z,17.03
2019-03-01T17:10:34.665Z,15.90
2019-03-01T17:13:03.603Z,13.97
2019-03-01T17:15:32.538Z,13.63
2019-03-01T17:18:01.493Z,13.57
2019-03-01T17:20:31.397Z,13.57
2019-03-01T17:23:03.142Z,14.03
2019-03-01T17:25:30.858Z,16.07
2019-03-01T17:27:59.817Z,16.20
2019-03-01T17:30:28.749Z,12.87
2019-03-01T17:32:57.697Z,16.83
2019-03-01T17:35:26.591Z,14.67
2019-03-01T17:37:55.505Z,15.07
2019-03-01T17:40:24.359Z,17.87
2019-03-01T17:42:56.268Z,14.10
2019-03-01T17:45:24.404Z,14.80
2019-03-01T17:47:55.315Z,15.67
2019-03-01T17:50:23.864Z,17.13
2019-03-01T17:53:17.726Z,17.50
2019-03-01T17:55:46.640Z,16.47
2019-03-01T17:58:15.559Z,15.67
2019-03-01T18:00:45.324Z,18.77
2019-03-01T18:03:14.236Z,13.37
2019-03-01T18:05:43.077Z,11.20
2019-03-01T18:08:13.950Z,15.73
2019-03-01T18:10:42.620Z,12.37
2019-03-01T18:13:11.482Z,12.47
2019-03-01T18:15:40.387Z,12.30
2019-03-01T18:18:12.289Z,8.37
2019-03-01T18:20:39.858Z,9.30
2019-03-01T18:23:08.802Z,11.50
2019-03-01T18:25:37.711Z,16.23
2019-03-01T18:28:06.643Z,12.10
2019-03-01T18:30:35.569Z,15.10
2019-03-01T18:33:04.514Z,15.57
2019-03-01T18:35:33.402Z,14.57
2019-03-01T18:38:02.234Z,15.40
2019-03-01T18:40:31.183Z,13.53
2019-03-01T18:43:00.098Z,11.37
2019-03-01T18:45:29.600Z,16.17
2019-03-01T18:47:58.569Z,16.07
2019-03-01T18:50:31.167Z,13.43
2019-03-01T18:53:00.193Z,16.93
2019-03-01T18:55:29.088Z,19.17
2019-03-01T18:57:58.013Z,19.93
2019-03-01T19:00:29.044Z,12.50
2019-03-01T19:03:01.035Z,11.43
2019-03-01T19:05:28.547Z,16.97
2019-03-01T19:08:00.717Z,17.97
2019-03-01T19:10:28.728Z,11.53
2019-03-01T19:12:57.851Z,23.50
2019-03-01T19:15:26.771Z,12.03
2019-03-01T19:17:55.961Z,11.97
2019-03-01T19:20:26.525Z,19.10
2019-03-01T19:22:55.468Z,13.33
2019-03-01T19:25:25.285Z,15.00
2019-03-01T19:27:54.834Z,14.00
2019-03-01T19:30:24.451Z,17.17
2019-03-01T19:32:53.553Z,13.87
2019-03-01T19:35:28.345Z,12.60
2019-03-01T19:37:53.129Z,9.70
2019-03-01T19:40:22.517Z,13.30
2019-03-01T19:42:51.425Z,12.57
2019-03-01T19:45:20.356Z,13.40
2019-03-01T19:47:49.273Z,14.40
2019-03-01T19:50:21.822Z,12.53
2019-03-01T19:52:50.594Z,11.07
2019-03-01T19:55:19.721Z,15.80
2019-03-01T19:57:49.722Z,10.13
2019-03-01T20:00:20.292Z,15.73
2019-03-01T20:02:49.218Z,11.70
2019-03-01T20:05:19.806Z,10.10
2019-03-01T20:07:51.814Z,13.43
2019-03-01T20:10:19.341Z,17.77
2019-03-01T20:12:48.241Z,12.10
2019-03-01T20:15:18.037Z,10.87
2019-03-01T20:17:47.005Z,11.17
2019-03-01T20:20:16.808Z,9.47
2019-03-01T20:22:45.759Z,12.30
2019-03-01T20:25:16.208Z,8.60
2019-03-01T20:27:45.809Z,13.80
2019-03-01T20:30:16.385Z,11.20
2019-03-01T20:32:47.391Z,14.63
2019-03-01T20:35:15.930Z,13.93
2019-03-01T20:37:44.835Z,10.60
2019-03-01T20:40:14.436Z,16.90
2019-03-01T20:42:43.730Z,9.03
2019-03-01T20:45:14.090Z,6.63
2019-03-01T20:47:44.729Z,8.90
2019-03-01T20:50:15.706Z,11.63
2019-03-01T20:52:44.266Z,10.37
2019-03-01T20:55:13.184Z,10.03
2019-03-01T20:57:42.052Z,9.27
2019-03-01T21:00:12.634Z,13.43
2019-03-01T21:02:42.012Z,9.57
2019-03-01T21:05:11.897Z,13.27
2019-03-01T21:07:40.915Z,19.93
2019-03-01T21:10:12.589Z,10.33
2019-03-01T21:12:42.282Z,9.53
2019-03-01T21:15:12.449Z,8.50
2019-03-01T21:17:41.373Z,9.43
2019-03-01T21:20:11.382Z,7.33
2019-03-01T21:34:56.083Z,11.03
2019-03-01T21:37:25.024Z,8.87
2019-03-01T21:40:06.660Z,8.90
2019-03-01T21:42:35.636Z,7.93
2019-03-01T21:45:06.280Z,14.70
2019-03-01T21:47:35.217Z,7.87
2019-03-01T21:50:07.523Z,8.57
2019-03-01T21:52:35.176Z,9.27
2019-03-01T21:55:05.771Z,11.93
2019-03-01T21:57:34.701Z,9.57
2019-03-01T22:00:05.098Z,10.67
2019-03-01T22:02:35.708Z,11.63
2019-03-01T22:05:06.278Z,12.27
2019-03-01T22:07:37.195Z,11.90
2019-03-01T22:10:07.365Z,5.03
2019-03-01T22:12:36.362Z,11.97
2019-03-01T22:15:06.893Z,11.20
2019-03-01T22:17:36.657Z,8.57
2019-03-01T22:20:08.971Z,8.87
2019-03-01T22:22:38.767Z,9.47
2019-03-01T22:25:09.238Z,7.60
2019-03-01T22:27:38.179Z,9.57
2019-03-01T22:30:08.861Z,11.53
2019-03-01T22:32:37.772Z,7.53
2019-03-01T22:35:09.407Z,8.40
2019-03-01T22:37:37.297Z,8.70
2019-03-01T22:40:08.048Z,10.53
2019-03-01T22:42:37.024Z,9.10
2019-03-01T22:45:10.337Z,10.10
2019-03-01T22:47:38.271Z,11.33
2019-03-01T22:50:08.764Z,7.43
2019-03-01T22:52:37.653Z,8.80
2019-03-01T22:55:07.680Z,8.57
2019-03-01T22:57:36.587Z,10.77
2019-03-01T23:00:07.223Z,11.47
2019-03-01T23:02:40.337Z,10.07
2019-03-01T23:05:09.360Z,7.33
2019-03-01T23:07:38.330Z,10.83
2019-03-01T23:10:08.513Z,13.23
2019-03-01T23:12:40.577Z,9.30
2019-03-01T23:15:08.226Z,12.07
2019-03-01T23:17:37.206Z,12.03
2019-03-01T23:20:07.757Z,9.70
2019-03-01T23:22:36.647Z,8.63
2019-03-01T23:25:07.586Z,8.43
2019-03-01T23:27:36.401Z,11.20
2019-03-01T23:30:29.067Z,8.80
2019-03-01T23:32:56.846Z,7.83
2019-03-01T23:35:25.783Z,8.33
2019-03-01T23:37:54.746Z,11.63
2019-03-01T23:40:23.673Z,12.77
2019-03-01T23:42:53.364Z,10.50
2019-03-01T23:45:23.233Z,8.27
2019-03-01T23:47:52.152Z,9.57
2019-03-01T23:50:21.059Z,8.57
2019-03-01T23:52:49.990Z,10.90
2019-03-01T23:55:19.876Z,12.80
2019-03-01T23:57:48.872Z,10.80
